sensor_id;sensor_type;location;lat;lon;timestamp;temperature;humidity
22130;DHT22;11231;50.746;4.272;2023-11-21T00:01:02;12.00;99.90
22130;DHT22;11231;50.746;4.272;2023-11-21T00:03:30;11.90;99.90
22130;DHT22;11231;50.746;4.272;2023-11-21T00:05:56;11.90;99.90
22130;DHT22;11231;50.746;4.272;2023-11-21T00:08:21;11.90;99.90
22130;DHT22;11231;50.746;4.272;2023-11-21T00:10:47;11.90;99.90
22130;DHT22;11231;50.746;4.272;2023-11-21T00:13:13;11.90;99.90
22130;DHT22;11231;50.746;4.272;2023-11-21T00:15:39;11.90;99.90
22130;DHT22;11231;50.746;4.272;2023-11-21T00:18:06;11.80;99.90
22130;DHT22;11231;50.746;4.272;2023-11-21T00:20:32;11.80;99.90
22130;DHT22;11231;50.746;4.272;2023-11-21T00:22:57;11.70;99.90
22130;DHT22;11231;50.746;4.272;2023-11-21T00:25:25;11.70;99.90
22130;DHT22;11231;50.746;4.272;2023-11-21T00:27:50;11.70;99.90
22130;DHT22;11231;50.746;4.272;2023-11-21T00:30:16;11.70;99.90
22130;DHT22;11231;50.746;4.272;2023-11-21T00:32:42;11.70;99.90
22130;DHT22;11231;50.746;4.272;2023-11-21T00:35:09;11.70;99.90
22130;DHT22;11231;50.746;4.272;2023-11-21T00:37:34;11.60;99.90
22130;DHT22;11231;50.746;4.272;2023-11-21T00:40:00;11.60;99.90
22130;DHT22;11231;50.746;4.272;2023-11-21T00:42:31;11.40;99.90
22130;DHT22;11231;50.746;4.272;2023-11-21T00:44:59;11.30;99.90
22130;DHT22;11231;50.746;4.272;2023-11-21T00:47:25;11.20;99.90
22130;DHT22;11231;50.746;4.272;2023-11-21T00:49:51;11.20;99.90
22130;DHT22;11231;50.746;4.272;2023-11-21T00:52:16;11.10;99.90
22130;DHT22;11231;50.746;4.272;2023-11-21T00:54:42;11.00;99.90
22130;DHT22;11231;50.746;4.272;2023-11-21T00:57:08;10.90;99.90
22130;DHT22;11231;50.746;4.272;2023-11-21T00:59:34;10.90;99.90
22130;DHT22;11231;50.746;4.272;2023-11-21T01:02:00;10.90;99.90
22130;DHT22;11231;50.746;4.272;2023-11-21T01:04:27;10.70;99.90
22130;DHT22;11231;50.746;4.272;2023-11-21T01:06:53;10.60;99.90
22130;DHT22;11231;50.746;4.272;2023-11-21T01:09:19;10.50;99.90
22130;DHT22;11231;50.746;4.272;2023-11-21T01:11:45;10.50;99.90
22130;DHT22;11231;50.746;4.272;2023-11-21T01:14:11;10.40;99.90
22130;DHT22;11231;50.746;4.272;2023-11-21T01:16:39;10.40;99.90
22130;DHT22;11231;50.746;4.272;2023-11-21T01:19:04;10.50;99.90
22130;DHT22;11231;50.746;4.272;2023-11-21T01:21:31;10.60;99.90
22130;DHT22;11231;50.746;4.272;2023-11-21T01:23:57;10.70;99.90
22130;DHT22;11231;50.746;4.272;2023-11-21T01:26:22;10.90;99.90
22130;DHT22;11231;50.746;4.272;2023-11-21T01:28:48;10.90;99.90
22130;DHT22;11231;50.746;4.272;2023-11-21T01:31:15;10.80;99.90
22130;DHT22;11231;50.746;4.272;2023-11-21T01:33:41;10.90;99.90
22130;DHT22;11231;50.746;4.272;2023-11-21T01:36:07;11.00;99.90
22130;DHT22;11231;50.746;4.272;2023-11-21T01:38:33;10.90;99.90
22130;DHT22;11231;50.746;4.272;2023-11-21T01:40:59;10.90;99.90
22130;DHT22;11231;50.746;4.272;2023-11-21T01:43:27;11.00;99.90
22130;DHT22;11231;50.746;4.272;2023-11-21T01:45:54;11.10;99.90
22130;DHT22;11231;50.746;4.272;2023-11-21T01:48:23;11.00;99.90
22130;DHT22;11231;50.746;4.272;2023-11-21T01:50:49;11.00;99.90
22130;DHT22;11231;50.746;4.272;2023-11-21T01:53:14;11.00;99.90
22130;DHT22;11231;50.746;4.272;2023-11-21T01:55:42;11.00;99.90
22130;DHT22;11231;50.746;4.272;2023-11-21T01:58:10;11.10;99.90
22130;DHT22;11231;50.746;4.272;2023-11-21T02:00:37;11.20;99.90
22130;DHT22;11231;50.746;4.272;2023-11-21T02:03:04;11.30;99.90
22130;DHT22;11231;50.746;4.272;2023-11-21T02:05:30;11.40;99.90
22130;DHT22;11231;50.746;4.272;2023-11-21T02:07:57;11.50;99.90
22130;DHT22;11231;50.746;4.272;2023-11-21T02:10:23;11.50;99.90
22130;DHT22;11231;50.746;4.272;2023-11-21T02:12:50;11.40;99.90
22130;DHT22;11231;50.746;4.272;2023-11-21T02:15:16;11.50;99.90
22130;DHT22;11231;50.746;4.272;2023-11-21T02:17:46;11.50;99.90
22130;DHT22;11231;50.746;4.272;2023-11-21T02:20:13;11.50;99.90
22130;DHT22;11231;50.746;4.272;2023-11-21T02:22:44;11.50;99.90
22130;DHT22;11231;50.746;4.272;2023-11-21T02:25:10;11.50;99.90
22130;DHT22;11231;50.746;4.272;2023-11-21T02:27:37;11.50;99.90
22130;DHT22;11231;50.746;4.272;2023-11-21T02:30:03;11.40;99.90
22130;DHT22;11231;50.746;4.272;2023-11-21T02:32:30;11.40;99.90
22130;DHT22;11231;50.746;4.272;2023-11-21T02:35:00;11.40;99.90
22130;DHT22;11231;50.746;4.272;2023-11-21T02:37:33;11.50;99.90
22130;DHT22;11231;50.746;4.272;2023-11-21T02:39:59;11.60;99.90
22130;DHT22;11231;50.746;4.272;2023-11-21T02:42:25;11.70;99.90
22130;DHT22;11231;50.746;4.272;2023-11-21T02:44:50;11.70;99.90
22130;DHT22;11231;50.746;4.272;2023-11-21T02:47:16;11.80;99.90
22130;DHT22;11231;50.746;4.272;2023-11-21T02:49:42;11.80;99.90
22130;DHT22;11231;50.746;4.272;2023-11-21T02:52:09;11.80;99.90
22130;DHT22;11231;50.746;4.272;2023-11-21T02:54:35;11.60;99.90
22130;DHT22;11231;50.746;4.272;2023-11-21T02:57:02;11.40;99.90
22130;DHT22;11231;50.746;4.272;2023-11-21T02:59:29;11.20;99.90
22130;DHT22;11231;50.746;4.272;2023-11-21T03:01:55;11.10;99.90
22130;DHT22;11231;50.746;4.272;2023-11-21T03:04:23;11.20;99.90
22130;DHT22;11231;50.746;4.272;2023-11-21T03:06:48;11.20;99.90
22130;DHT22;11231;50.746;4.272;2023-11-21T03:09:14;11.30;99.90
22130;DHT22;11231;50.746;4.272;2023-11-21T03:11:41;11.40;99.90
22130;DHT22;11231;50.746;4.272;2023-11-21T03:14:07;11.40;99.90
22130;DHT22;11231;50.746;4.272;2023-11-21T03:16:33;11.50;99.90
22130;DHT22;11231;50.746;4.272;2023-11-21T03:18:58;11.50;99.90
22130;DHT22;11231;50.746;4.272;2023-11-21T03:21:24;11.60;99.90
22130;DHT22;11231;50.746;4.272;2023-11-21T03:23:52;11.60;99.90
22130;DHT22;11231;50.746;4.272;2023-11-21T03:26:18;11.60;99.90
22130;DHT22;11231;50.746;4.272;2023-11-21T03:28:44;11.60;99.90
22130;DHT22;11231;50.746;4.272;2023-11-21T03:31:11;11.70;99.90
22130;DHT22;11231;50.746;4.272;2023-11-21T03:33:37;11.60;99.90
22130;DHT22;11231;50.746;4.272;2023-11-21T03:36:03;11.60;99.90
22130;DHT22;11231;50.746;4.272;2023-11-21T03:38:29;11.50;99.90
22130;DHT22;11231;50.746;4.272;2023-11-21T03:40:56;11.50;99.90
22130;DHT22;11231;50.746;4.272;2023-11-21T03:43:21;11.50;99.90
22130;DHT22;11231;50.746;4.272;2023-11-21T03:45:47;11.50;99.90
22130;DHT22;11231;50.746;4.272;2023-11-21T03:48:14;11.50;99.90
22130;DHT22;11231;50.746;4.272;2023-11-21T03:50:39;11.50;99.90
22130;DHT22;11231;50.746;4.272;2023-11-21T03:53:06;11.50;99.90
22130;DHT22;11231;50.746;4.272;2023-11-21T03:55:31;11.50;99.90
22130;DHT22;11231;50.746;4.272;2023-11-21T03:57:58;11.60;99.90
22130;DHT22;11231;50.746;4.272;2023-11-21T04:00:25;11.60;99.90
22130;DHT22;11231;50.746;4.272;2023-11-21T04:02:52;11.60;99.90
22130;DHT22;11231;50.746;4.272;2023-11-21T04:05:20;11.60;99.90
22130;DHT22;11231;50.746;4.272;2023-11-21T04:07:51;11.60;99.90
22130;DHT22;11231;50.746;4.272;2023-11-21T04:10:17;11.60;99.90
22130;DHT22;11231;50.746;4.272;2023-11-21T04:12:43;11.70;99.90
22130;DHT22;11231;50.746;4.272;2023-11-21T04:15:10;11.80;99.90
22130;DHT22;11231;50.746;4.272;2023-11-21T04:17:36;11.80;99.90
22130;DHT22;11231;50.746;4.272;2023-11-21T04:20:06;11.80;99.90
22130;DHT22;11231;50.746;4.272;2023-11-21T04:22:42;11.80;99.90
22130;DHT22;11231;50.746;4.272;2023-11-21T04:25:10;11.80;99.90
22130;DHT22;11231;50.746;4.272;2023-11-21T04:27:40;11.70;99.90
22130;DHT22;11231;50.746;4.272;2023-11-21T04:30:06;11.70;99.90
22130;DHT22;11231;50.746;4.272;2023-11-21T04:32:32;11.80;99.90
22130;DHT22;11231;50.746;4.272;2023-11-21T04:34:58;11.80;99.90
22130;DHT22;11231;50.746;4.272;2023-11-21T04:37:23;11.90;99.90
22130;DHT22;11231;50.746;4.272;2023-11-21T04:39:50;11.90;99.90
22130;DHT22;11231;50.746;4.272;2023-11-21T04:42:15;11.90;99.90
22130;DHT22;11231;50.746;4.272;2023-11-21T04:44:41;11.90;99.90
22130;DHT22;11231;50.746;4.272;2023-11-21T04:47:07;11.90;99.90
22130;DHT22;11231;50.746;4.272;2023-11-21T04:49:33;11.70;99.90
22130;DHT22;11231;50.746;4.272;2023-11-21T04:51:59;11.60;99.90
22130;DHT22;11231;50.746;4.272;2023-11-21T04:54:25;11.50;99.90
22130;DHT22;11231;50.746;4.272;2023-11-21T04:56:50;11.40;99.90
22130;DHT22;11231;50.746;4.272;2023-11-21T04:59:16;11.30;99.90
22130;DHT22;11231;50.746;4.272;2023-11-21T05:01:42;11.40;99.90
22130;DHT22;11231;50.746;4.272;2023-11-21T05:04:08;11.30;99.90
22130;DHT22;11231;50.746;4.272;2023-11-21T05:06:34;11.40;99.90
22130;DHT22;11231;50.746;4.272;2023-11-21T05:09:00;11.50;99.90
22130;DHT22;11231;50.746;4.272;2023-11-21T05:11:26;11.50;99.90
22130;DHT22;11231;50.746;4.272;2023-11-21T05:13:52;11.50;99.90
22130;DHT22;11231;50.746;4.272;2023-11-21T05:16:19;11.60;99.90
22130;DHT22;11231;50.746;4.272;2023-11-21T05:18:45;11.70;99.90
22130;DHT22;11231;50.746;4.272;2023-11-21T05:21:11;11.80;99.90
22130;DHT22;11231;50.746;4.272;2023-11-21T05:23:37;11.90;99.90
22130;DHT22;11231;50.746;4.272;2023-11-21T05:26:03;11.80;99.90
22130;DHT22;11231;50.746;4.272;2023-11-21T05:28:29;11.80;99.90
22130;DHT22;11231;50.746;4.272;2023-11-21T05:30:54;11.80;99.90
22130;DHT22;11231;50.746;4.272;2023-11-21T05:33:20;11.80;99.90
22130;DHT22;11231;50.746;4.272;2023-11-21T05:35:46;11.90;99.90
22130;DHT22;11231;50.746;4.272;2023-11-21T05:38:14;11.90;99.90
22130;DHT22;11231;50.746;4.272;2023-11-21T05:40:39;11.90;99.90
22130;DHT22;11231;50.746;4.272;2023-11-21T05:43:06;11.90;99.90
22130;DHT22;11231;50.746;4.272;2023-11-21T05:45:32;12.00;99.90
22130;DHT22;11231;50.746;4.272;2023-11-21T05:47:58;12.00;99.90
22130;DHT22;11231;50.746;4.272;2023-11-21T05:50:24;11.90;99.90
22130;DHT22;11231;50.746;4.272;2023-11-21T05:52:50;11.90;99.90
22130;DHT22;11231;50.746;4.272;2023-11-21T05:55:16;12.00;99.90
22130;DHT22;11231;50.746;4.272;2023-11-21T05:57:43;12.00;99.90
22130;DHT22;11231;50.746;4.272;2023-11-21T06:00:11;12.00;99.90
22130;DHT22;11231;50.746;4.272;2023-11-21T06:02:43;12.10;99.90
22130;DHT22;11231;50.746;4.272;2023-11-21T06:05:10;12.00;99.90
22130;DHT22;11231;50.746;4.272;2023-11-21T06:07:37;12.00;99.90
22130;DHT22;11231;50.746;4.272;2023-11-21T06:10:07;12.00;99.90
22130;DHT22;11231;50.746;4.272;2023-11-21T06:12:35;12.00;99.90
22130;DHT22;11231;50.746;4.272;2023-11-21T06:15:05;12.00;99.90
22130;DHT22;11231;50.746;4.272;2023-11-21T06:17:32;12.00;99.90
22130;DHT22;11231;50.746;4.272;2023-11-21T06:20:00;12.00;99.90
22130;DHT22;11231;50.746;4.272;2023-11-21T06:22:26;11.90;99.90
22130;DHT22;11231;50.746;4.272;2023-11-21T06:24:52;11.90;99.90
22130;DHT22;11231;50.746;4.272;2023-11-21T06:27:17;12.00;99.90
22130;DHT22;11231;50.746;4.272;2023-11-21T06:29:43;12.00;99.90
22130;DHT22;11231;50.746;4.272;2023-11-21T06:32:09;12.10;99.90
22130;DHT22;11231;50.746;4.272;2023-11-21T06:34:35;12.00;99.90
22130;DHT22;11231;50.746;4.272;2023-11-21T06:37:03;12.10;99.90
22130;DHT22;11231;50.746;4.272;2023-11-21T06:39:29;12.00;99.90
22130;DHT22;11231;50.746;4.272;2023-11-21T06:41:55;12.10;99.90
22130;DHT22;11231;50.746;4.272;2023-11-21T06:44:20;12.10;99.90
22130;DHT22;11231;50.746;4.272;2023-11-21T06:46:46;12.10;99.90
22130;DHT22;11231;50.746;4.272;2023-11-21T06:49:12;12.10;99.90
22130;DHT22;11231;50.746;4.272;2023-11-21T06:51:38;12.20;99.90
22130;DHT22;11231;50.746;4.272;2023-11-21T06:54:03;12.20;99.90
22130;DHT22;11231;50.746;4.272;2023-11-21T06:56:30;12.20;99.90
22130;DHT22;11231;50.746;4.272;2023-11-21T06:58:56;12.20;99.90
22130;DHT22;11231;50.746;4.272;2023-11-21T07:01:22;12.30;99.90
22130;DHT22;11231;50.746;4.272;2023-11-21T07:03:47;12.30;99.90
22130;DHT22;11231;50.746;4.272;2023-11-21T07:06:13;12.40;99.90
22130;DHT22;11231;50.746;4.272;2023-11-21T07:08:39;12.30;99.90
22130;DHT22;11231;50.746;4.272;2023-11-21T07:11:05;12.20;99.90
22130;DHT22;11231;50.746;4.272;2023-11-21T07:13:30;12.10;99.90
22130;DHT22;11231;50.746;4.272;2023-11-21T07:15:59;12.10;99.90
22130;DHT22;11231;50.746;4.272;2023-11-21T07:18:24;12.20;99.90
22130;DHT22;11231;50.746;4.272;2023-11-21T07:20:50;12.30;99.90
22130;DHT22;11231;50.746;4.272;2023-11-21T07:23:16;12.20;99.90
22130;DHT22;11231;50.746;4.272;2023-11-21T07:25:41;12.20;99.90
22130;DHT22;11231;50.746;4.272;2023-11-21T07:28:09;12.30;99.90
22130;DHT22;11231;50.746;4.272;2023-11-21T07:30:35;12.30;99.90
22130;DHT22;11231;50.746;4.272;2023-11-21T07:33:00;12.40;99.90
22130;DHT22;11231;50.746;4.272;2023-11-21T07:35:26;12.50;99.90
22130;DHT22;11231;50.746;4.272;2023-11-21T07:37:52;12.50;99.90
22130;DHT22;11231;50.746;4.272;2023-11-21T07:40:17;12.50;99.90
22130;DHT22;11231;50.746;4.272;2023-11-21T07:42:44;12.50;99.90
22130;DHT22;11231;50.746;4.272;2023-11-21T07:45:10;12.60;99.90
22130;DHT22;11231;50.746;4.272;2023-11-21T07:47:37;12.70;99.90
22130;DHT22;11231;50.746;4.272;2023-11-21T07:50:05;12.80;99.90
22130;DHT22;11231;50.746;4.272;2023-11-21T07:52:32;12.80;99.90
22130;DHT22;11231;50.746;4.272;2023-11-21T07:54:59;12.80;99.90
22130;DHT22;11231;50.746;4.272;2023-11-21T07:57:24;12.80;99.90
22130;DHT22;11231;50.746;4.272;2023-11-21T07:59:51;12.80;99.90
22130;DHT22;11231;50.746;4.272;2023-11-21T08:02:19;12.90;99.90
22130;DHT22;11231;50.746;4.272;2023-11-21T08:04:44;12.90;99.90
22130;DHT22;11231;50.746;4.272;2023-11-21T08:07:10;12.90;99.90
22130;DHT22;11231;50.746;4.272;2023-11-21T08:09:36;12.70;99.90
22130;DHT22;11231;50.746;4.272;2023-11-21T08:12:02;12.70;99.90
22130;DHT22;11231;50.746;4.272;2023-11-21T08:14:28;12.80;99.90
22130;DHT22;11231;50.746;4.272;2023-11-21T08:16:54;12.70;99.90
22130;DHT22;11231;50.746;4.272;2023-11-21T08:19:23;12.70;99.90
22130;DHT22;11231;50.746;4.272;2023-11-21T08:21:50;12.80;99.90
22130;DHT22;11231;50.746;4.272;2023-11-21T08:24:16;12.90;99.90
22130;DHT22;11231;50.746;4.272;2023-11-21T08:26:42;12.90;99.90
22130;DHT22;11231;50.746;4.272;2023-11-21T08:29:08;12.90;99.90
22130;DHT22;11231;50.746;4.272;2023-11-21T08:31:34;13.00;99.90
22130;DHT22;11231;50.746;4.272;2023-11-21T08:34:00;13.00;99.90
22130;DHT22;11231;50.746;4.272;2023-11-21T08:36:27;13.00;99.90
22130;DHT22;11231;50.746;4.272;2023-11-21T08:38:53;13.10;99.90
22130;DHT22;11231;50.746;4.272;2023-11-21T08:41:19;13.20;99.90
22130;DHT22;11231;50.746;4.272;2023-11-21T08:43:49;13.20;99.90
22130;DHT22;11231;50.746;4.272;2023-11-21T08:46:15;13.20;99.90
22130;DHT22;11231;50.746;4.272;2023-11-21T08:48:42;13.20;99.90
22130;DHT22;11231;50.746;4.272;2023-11-21T08:51:10;13.10;99.90
22130;DHT22;11231;50.746;4.272;2023-11-21T08:53:39;13.10;99.90
22130;DHT22;11231;50.746;4.272;2023-11-21T08:56:06;13.10;99.90
22130;DHT22;11231;50.746;4.272;2023-11-21T08:58:32;13.00;99.90
22130;DHT22;11231;50.746;4.272;2023-11-21T09:00:58;13.00;99.90
22130;DHT22;11231;50.746;4.272;2023-11-21T09:03:24;13.10;99.90
22130;DHT22;11231;50.746;4.272;2023-11-21T09:05:50;13.20;99.90
22130;DHT22;11231;50.746;4.272;2023-11-21T09:08:16;13.30;99.90
22130;DHT22;11231;50.746;4.272;2023-11-21T09:10:42;13.40;99.90
22130;DHT22;11231;50.746;4.272;2023-11-21T09:13:10;13.40;99.90
22130;DHT22;11231;50.746;4.272;2023-11-21T09:15:36;13.40;99.90
22130;DHT22;11231;50.746;4.272;2023-11-21T09:18:02;13.40;99.90
22130;DHT22;11231;50.746;4.272;2023-11-21T09:20:27;13.40;99.90
22130;DHT22;11231;50.746;4.272;2023-11-21T09:22:54;13.40;99.90
22130;DHT22;11231;50.746;4.272;2023-11-21T09:25:21;13.40;99.90
22130;DHT22;11231;50.746;4.272;2023-11-21T09:27:47;13.40;99.90
22130;DHT22;11231;50.746;4.272;2023-11-21T09:30:12;13.40;99.90
22130;DHT22;11231;50.746;4.272;2023-11-21T09:32:40;13.50;99.90
22130;DHT22;11231;50.746;4.272;2023-11-21T09:35:06;13.60;99.90
22130;DHT22;11231;50.746;4.272;2023-11-21T09:37:34;13.70;99.90
22130;DHT22;11231;50.746;4.272;2023-11-21T09:40:04;13.70;99.90
22130;DHT22;11231;50.746;4.272;2023-11-21T09:42:36;13.70;99.90
22130;DHT22;11231;50.746;4.272;2023-11-21T09:45:15;13.60;99.90
22130;DHT22;11231;50.746;4.272;2023-11-21T09:47:42;13.50;99.90
22130;DHT22;11231;50.746;4.272;2023-11-21T09:50:09;13.60;99.90
22130;DHT22;11231;50.746;4.272;2023-11-21T09:52:59;13.60;99.90
22130;DHT22;11231;50.746;4.272;2023-11-21T09:55:28;13.60;99.90
22130;DHT22;11231;50.746;4.272;2023-11-21T09:58:02;13.70;99.90
22130;DHT22;11231;50.746;4.272;2023-11-21T10:00:30;13.70;99.90
22130;DHT22;11231;50.746;4.272;2023-11-21T10:02:58;13.60;99.90
22130;DHT22;11231;50.746;4.272;2023-11-21T10:05:24;13.70;99.90
22130;DHT22;11231;50.746;4.272;2023-11-21T10:07:50;13.70;99.90
22130;DHT22;11231;50.746;4.272;2023-11-21T10:10:18;13.80;99.90
22130;DHT22;11231;50.746;4.272;2023-11-21T10:12:49;13.80;99.90
22130;DHT22;11231;50.746;4.272;2023-11-21T10:15:21;13.90;99.90
22130;DHT22;11231;50.746;4.272;2023-11-21T10:17:49;14.00;99.90
22130;DHT22;11231;50.746;4.272;2023-11-21T10:20:15;13.90;99.90
22130;DHT22;11231;50.746;4.272;2023-11-21T10:22:42;13.80;99.90
22130;DHT22;11231;50.746;4.272;2023-11-21T10:25:09;13.80;99.90
22130;DHT22;11231;50.746;4.272;2023-11-21T10:27:36;13.80;99.90
22130;DHT22;11231;50.746;4.272;2023-11-21T10:30:03;13.70;99.90
22130;DHT22;11231;50.746;4.272;2023-11-21T10:32:29;13.60;99.90
22130;DHT22;11231;50.746;4.272;2023-11-21T10:34:58;13.70;99.90
22130;DHT22;11231;50.746;4.272;2023-11-21T10:37:33;13.70;99.90
22130;DHT22;11231;50.746;4.272;2023-11-21T10:39:59;13.90;99.90
22130;DHT22;11231;50.746;4.272;2023-11-21T10:42:25;14.00;99.90
22130;DHT22;11231;50.746;4.272;2023-11-21T10:44:51;14.00;99.90
22130;DHT22;11231;50.746;4.272;2023-11-21T10:47:17;13.90;99.90
22130;DHT22;11231;50.746;4.272;2023-11-21T10:49:47;13.80;99.90
22130;DHT22;11231;50.746;4.272;2023-11-21T10:52:14;13.80;99.90
22130;DHT22;11231;50.746;4.272;2023-11-21T10:54:46;13.80;99.90
22130;DHT22;11231;50.746;4.272;2023-11-21T10:57:17;13.80;99.90
22130;DHT22;11231;50.746;4.272;2023-11-21T10:59:46;13.90;99.90
22130;DHT22;11231;50.746;4.272;2023-11-21T11:02:24;13.90;99.90
22130;DHT22;11231;50.746;4.272;2023-11-21T11:04:57;14.00;99.90
22130;DHT22;11231;50.746;4.272;2023-11-21T11:07:27;14.10;99.90
22130;DHT22;11231;50.746;4.272;2023-11-21T11:09:54;14.30;99.90
22130;DHT22;11231;50.746;4.272;2023-11-21T11:12:20;14.40;99.90
22130;DHT22;11231;50.746;4.272;2023-11-21T11:14:47;14.30;99.90
22130;DHT22;11231;50.746;4.272;2023-11-21T11:17:13;14.20;99.90
22130;DHT22;11231;50.746;4.272;2023-11-21T11:19:39;14.10;99.90
22130;DHT22;11231;50.746;4.272;2023-11-21T11:22:16;14.10;99.90
22130;DHT22;11231;50.746;4.272;2023-11-21T11:33:12;14.30;99.90
22130;DHT22;11231;50.746;4.272;2023-11-21T11:38:13;14.30;99.90
22130;DHT22;11231;50.746;4.272;2023-11-21T11:40:45;14.30;99.90
22130;DHT22;11231;50.746;4.272;2023-11-21T11:43:10;14.20;99.90
22130;DHT22;11231;50.746;4.272;2023-11-21T11:45:37;14.10;99.90
22130;DHT22;11231;50.746;4.272;2023-11-21T11:48:18;14.10;99.90
22130;DHT22;11231;50.746;4.272;2023-11-21T11:51:10;14.10;99.90
22130;DHT22;11231;50.746;4.272;2023-11-21T11:53:41;14.10;99.90
22130;DHT22;11231;50.746;4.272;2023-11-21T11:56:27;14.20;99.90
22130;DHT22;11231;50.746;4.272;2023-11-21T11:58:58;14.20;99.90
22130;DHT22;11231;50.746;4.272;2023-11-21T12:01:26;14.10;99.90
22130;DHT22;11231;50.746;4.272;2023-11-21T12:04:23;14.10;99.90
22130;DHT22;11231;50.746;4.272;2023-11-21T12:06:52;13.90;99.90
22130;DHT22;11231;50.746;4.272;2023-11-21T12:09:22;13.40;99.90
22130;DHT22;11231;50.746;4.272;2023-11-21T12:11:50;13.40;99.90
22130;DHT22;11231;50.746;4.272;2023-11-21T12:14:16;13.60;99.90
22130;DHT22;11231;50.746;4.272;2023-11-21T12:16:42;13.60;99.90
22130;DHT22;11231;50.746;4.272;2023-11-21T12:19:09;13.70;99.90
22130;DHT22;11231;50.746;4.272;2023-11-21T12:21:36;13.90;99.90
22130;DHT22;11231;50.746;4.272;2023-11-21T12:24:02;13.90;99.90
22130;DHT22;11231;50.746;4.272;2023-11-21T12:26:28;13.50;99.90
22130;DHT22;11231;50.746;4.272;2023-11-21T12:28:54;13.40;99.90
22130;DHT22;11231;50.746;4.272;2023-11-21T12:31:21;13.20;99.90
22130;DHT22;11231;50.746;4.272;2023-11-21T12:33:47;13.00;99.90
22130;DHT22;11231;50.746;4.272;2023-11-21T12:36:13;12.80;99.90
22130;DHT22;11231;50.746;4.272;2023-11-21T12:38:39;12.80;99.90
22130;DHT22;11231;50.746;4.272;2023-11-21T12:41:05;12.80;99.90
22130;DHT22;11231;50.746;4.272;2023-11-21T12:43:32;12.80;99.90
22130;DHT22;11231;50.746;4.272;2023-11-21T12:46:11;12.80;99.90
22130;DHT22;11231;50.746;4.272;2023-11-21T12:48:44;12.80;99.90
22130;DHT22;11231;50.746;4.272;2023-11-21T12:51:13;12.90;99.90
22130;DHT22;11231;50.746;4.272;2023-11-21T12:53:42;13.10;99.90
22130;DHT22;11231;50.746;4.272;2023-11-21T12:56:11;13.10;99.90
22130;DHT22;11231;50.746;4.272;2023-11-21T12:58:37;13.10;99.90
22130;DHT22;11231;50.746;4.272;2023-11-21T13:01:07;12.90;99.90
22130;DHT22;11231;50.746;4.272;2023-11-21T13:03:39;12.90;99.90
22130;DHT22;11231;50.746;4.272;2023-11-21T13:06:06;12.80;99.90
22130;DHT22;11231;50.746;4.272;2023-11-21T13:08:33;12.60;99.90
22130;DHT22;11231;50.746;4.272;2023-11-21T13:10:59;12.70;99.90
22130;DHT22;11231;50.746;4.272;2023-11-21T13:13:28;12.80;99.90
22130;DHT22;11231;50.746;4.272;2023-11-21T13:16:01;13.00;99.90
22130;DHT22;11231;50.746;4.272;2023-11-21T13:18:31;13.00;99.90
22130;DHT22;11231;50.746;4.272;2023-11-21T13:21:03;13.00;99.90
22130;DHT22;11231;50.746;4.272;2023-11-21T13:23:35;12.70;99.90
22130;DHT22;11231;50.746;4.272;2023-11-21T13:26:02;12.60;99.90
22130;DHT22;11231;50.746;4.272;2023-11-21T13:28:32;12.70;99.90
22130;DHT22;11231;50.746;4.272;2023-11-21T13:30:59;12.80;99.90
22130;DHT22;11231;50.746;4.272;2023-11-21T13:33:37;12.80;99.90
22130;DHT22;11231;50.746;4.272;2023-11-21T13:36:07;12.90;99.90
22130;DHT22;11231;50.746;4.272;2023-11-21T13:38:35;13.10;99.90
22130;DHT22;11231;50.746;4.272;2023-11-21T13:41:03;13.40;99.90
22130;DHT22;11231;50.746;4.272;2023-11-21T13:43:32;13.50;99.90
22130;DHT22;11231;50.746;4.272;2023-11-21T13:45:59;13.50;99.90
22130;DHT22;11231;50.746;4.272;2023-11-21T13:48:33;13.60;99.90
22130;DHT22;11231;50.746;4.272;2023-11-21T13:51:13;13.60;99.90
22130;DHT22;11231;50.746;4.272;2023-11-21T13:53:46;13.60;99.90
22130;DHT22;11231;50.746;4.272;2023-11-21T13:56:19;13.60;99.90
22130;DHT22;11231;50.746;4.272;2023-11-21T13:58:54;13.60;99.90
22130;DHT22;11231;50.746;4.272;2023-11-21T14:01:22;13.30;99.90
22130;DHT22;11231;50.746;4.272;2023-11-21T14:04:02;13.20;99.90
22130;DHT22;11231;50.746;4.272;2023-11-21T14:06:35;13.20;99.90
22130;DHT22;11231;50.746;4.272;2023-11-21T14:09:11;13.30;99.90
22130;DHT22;11231;50.746;4.272;2023-11-21T14:11:39;13.20;99.90
22130;DHT22;11231;50.746;4.272;2023-11-21T14:14:05;13.00;99.90
22130;DHT22;11231;50.746;4.272;2023-11-21T14:16:31;12.90;99.90
22130;DHT22;11231;50.746;4.272;2023-11-21T14:18:57;12.70;99.90
22130;DHT22;11231;50.746;4.272;2023-11-21T14:21:29;12.50;99.90
22130;DHT22;11231;50.746;4.272;2023-11-21T14:23:55;12.50;99.90
22130;DHT22;11231;50.746;4.272;2023-11-21T14:26:21;12.50;99.90
22130;DHT22;11231;50.746;4.272;2023-11-21T14:28:49;12.40;99.90
22130;DHT22;11231;50.746;4.272;2023-11-21T14:31:15;12.30;99.90
22130;DHT22;11231;50.746;4.272;2023-11-21T14:33:44;12.30;99.90
22130;DHT22;11231;50.746;4.272;2023-11-21T14:36:10;12.30;99.90
22130;DHT22;11231;50.746;4.272;2023-11-21T14:38:36;12.20;99.90
22130;DHT22;11231;50.746;4.272;2023-11-21T14:41:05;12.30;99.90
22130;DHT22;11231;50.746;4.272;2023-11-21T14:43:34;12.50;99.90
22130;DHT22;11231;50.746;4.272;2023-11-21T14:46:02;12.60;99.90
22130;DHT22;11231;50.746;4.272;2023-11-21T14:48:29;12.60;99.90
22130;DHT22;11231;50.746;4.272;2023-11-21T14:51:25;12.60;99.90
22130;DHT22;11231;50.746;4.272;2023-11-21T14:53:59;12.50;99.90
22130;DHT22;11231;50.746;4.272;2023-11-21T14:56:32;12.50;99.90
22130;DHT22;11231;50.746;4.272;2023-11-21T14:59:01;12.20;99.90
22130;DHT22;11231;50.746;4.272;2023-11-21T15:01:40;12.30;99.90
22130;DHT22;11231;50.746;4.272;2023-11-21T15:04:10;12.40;99.90
22130;DHT22;11231;50.746;4.272;2023-11-21T15:06:48;12.40;99.90
22130;DHT22;11231;50.746;4.272;2023-11-21T15:09:13;12.30;99.90
22130;DHT22;11231;50.746;4.272;2023-11-21T15:11:39;12.20;99.90
22130;DHT22;11231;50.746;4.272;2023-11-21T15:14:06;12.10;99.90
22130;DHT22;11231;50.746;4.272;2023-11-21T15:16:35;12.20;99.90
22130;DHT22;11231;50.746;4.272;2023-11-21T15:19:07;12.10;99.90
22130;DHT22;11231;50.746;4.272;2023-11-21T15:21:36;11.90;99.90
22130;DHT22;11231;50.746;4.272;2023-11-21T15:24:02;11.90;99.90
22130;DHT22;11231;50.746;4.272;2023-11-21T15:26:28;12.00;99.90
22130;DHT22;11231;50.746;4.272;2023-11-21T15:28:54;12.10;99.90
22130;DHT22;11231;50.746;4.272;2023-11-21T15:31:20;12.10;99.90
22130;DHT22;11231;50.746;4.272;2023-11-21T15:33:51;12.10;99.90
22130;DHT22;11231;50.746;4.272;2023-11-21T15:36:18;11.90;99.90
22130;DHT22;11231;50.746;4.272;2023-11-21T15:38:45;11.90;99.90
22130;DHT22;11231;50.746;4.272;2023-11-21T15:41:10;12.10;99.90
22130;DHT22;11231;50.746;4.272;2023-11-21T15:43:37;12.10;99.90